Google Maps JavaScript API Example
Pilot Flight Report # 93034 Submitted by : AST775 on 2019-06-11
Date: 2019-06-11Aircraft: Bombardier LearJet 45
Flight No.: Not AvailableDistance (Nm): 443.17
Departure: MUGM - Guantanamo Bay NASDestination: MYGF - Grand Bahama International
 TimeFuelWeightSpeeds  
Out (Taxi)1023Z2928 lbs15079 lbs Flight RulesVFR
Off (Takeoff)1023Z 15062 lbs125 ktsFlight Level30000
On (Landing)1142Z 13702 lbs128 ktsVSTD-156 ft/min
In (Ramp)1142Z1548 lbs13702 lbs ZFW12150 lbs
Flight1.30  -  1:191359 lbs  Pax0
Block1.32  -  1:191380 lbs  Cargo0
Departure WeatherMUGM 101022Z 00806KT 46SM FEW030 SCT250 28/22 A30
Destination WeatherMYGF 101142Z 25706KT 46SM FEW018 BKN250 29/25 A3002
Flight CommentsLeg 15 - MUGM - MYGF